Time;durP1;ratioP1;P1;durP2;ratioP2;P2;SDS_P1;SDS_P2;PMS_P1;PMS_P2;Temp;Humidity;BMP_temperature;BMP_pressure;BME280_temperature;BME280_humidity;BME280_pressure;Samples;Min_cycle;Max_cycle;Signal;HPM_P1;HPM_P2
2021/01/15 00:01:47;;;;;;;25.45;12.45;;;;;;;-2.17;81.59;97811.23;1832740;78;21165;-75
2021/01/15 00:04:13;;;;;;;27.37;13.48;;;;;;;-2.12;81.46;97812.77;1832841;77;21490;-74
2021/01/15 00:06:39;;;;;;;34.10;15.68;;;;;;;-2.12;81.60;97817.27;1832843;78;21097;-75
2021/01/15 00:09:05;;;;;;;29.48;14.33;;;;;;;-2.20;81.74;97817.46;1832811;77;21234;-75
2021/01/15 00:11:32;;;;;;;30.52;14.55;;;;;;;-2.14;81.66;97819.28;1825639;78;21086;-75
2021/01/15 00:14:01;;;;;;;30.57;14.28;;;;;;;-2.27;81.43;97822.25;1824574;77;21093;-75
2021/01/15 00:16:32;;;;;;;35.60;16.23;;;;;;;-2.27;81.74;97827.56;1824609;78;21018;-75
2021/01/15 00:19:00;;;;;;;26.95;13.50;;;;;;;-2.35;81.72;97826.42;1824392;77;21102;-74
2021/01/15 00:21:30;;;;;;;37.17;16.87;;;;;;;-2.39;82.16;97829.70;1824856;78;21133;-75
2021/01/15 00:24:05;;;;;;;35.28;16.65;;;;;;;-2.38;82.20;97840.11;1824418;77;21035;-75
2021/01/15 00:26:32;;;;;;;35.03;15.78;;;;;;;-2.53;82.56;97844.77;1797095;78;21503;-74
2021/01/15 00:28:58;;;;;;;30.37;13.85;;;;;;;-2.45;82.57;97846.42;1824557;77;21110;-75
2021/01/15 00:31:35;;;;;;;35.33;15.38;;;;;;;-2.39;82.28;97849.09;1824676;78;21416;-74
2021/01/15 00:34:03;;;;;;;36.68;17.15;;;;;;;-2.48;82.97;97848.94;1824617;77;21508;-73
2021/01/15 00:36:29;;;;;;;35.25;17.20;;;;;;;-2.38;82.59;97850.72;1824577;78;21113;-74
2021/01/15 00:38:55;;;;;;;34.40;16.57;;;;;;;-2.35;82.64;97850.31;1824587;77;21479;-74
2021/01/15 00:41:21;;;;;;;29.52;12.95;;;;;;;-2.31;82.46;97848.05;1824552;78;21082;-73
2021/01/15 00:43:48;;;;;;;32.30;14.83;;;;;;;-2.35;82.57;97854.80;1824620;77;21495;-73
2021/01/15 00:46:27;;;;;;;36.83;17.82;;;;;;;-2.36;82.75;97860.63;1824574;78;22070;-74
2021/01/15 00:48:45;;;;;;;31.95;13.43;;;;;;;-2.33;82.52;97855.41;1824262;77;21403;-74
2021/01/15 00:51:12;;;;;;;36.53;16.62;;;;;;;-2.35;82.58;97857.45;1824538;78;21110;-74
2021/01/15 00:53:38;;;;;;;31.15;16.73;;;;;;;-2.33;82.68;97860.20;1824539;77;21130;-74
2021/01/15 00:56:04;;;;;;;36.75;16.93;;;;;;;-2.33;82.51;97856.73;1824683;78;21415;-74
2021/01/15 00:58:31;;;;;;;33.88;16.37;;;;;;;-2.33;82.37;97868.68;1824662;77;22042;-74
2021/01/15 01:00:57;;;;;;;34.53;16.50;;;;;;;-2.45;82.67;97863.66;1824595;78;21058;-74
2021/01/15 01:03:23;;;;;;;34.08;18.92;;;;;;;-2.52;83.12;97866.30;1824544;77;21039;-74
2021/01/15 01:05:49;;;;;;;38.30;19.45;;;;;;;-2.48;83.30;97868.84;1824565;78;21078;-74
2021/01/15 01:08:15;;;;;;;41.98;17.67;;;;;;;-2.51;83.13;97864.45;1824600;77;21451;-74
2021/01/15 01:10:42;;;;;;;37.25;16.35;;;;;;;-2.43;82.86;97869.07;1827782;78;21244;-74
2021/01/15 01:13:08;;;;;;;36.08;17.10;;;;;;;-2.36;82.53;97877.06;1832646;77;21557;-74
2021/01/15 01:15:34;;;;;;;32.15;16.62;;;;;;;-2.43;81.62;97880.20;1832750;78;21058;-74
2021/01/15 01:18:00;;;;;;;29.52;15.75;;;;;;;-2.58;81.90;97878.52;1832714;77;21469;-74
2021/01/15 01:20:26;;;;;;;28.65;15.93;;;;;;;-2.56;81.89;97885.79;1832697;78;21530;-74
2021/01/15 01:22:53;;;;;;;38.28;16.82;;;;;;;-2.56;81.95;97889.77;1832795;77;22310;-74
2021/01/15 01:25:19;;;;;;;32.88;17.62;;;;;;;-2.53;81.84;97889.87;1832648;78;21172;-74
2021/01/15 01:27:45;;;;;;;32.73;16.50;;;;;;;-2.55;81.66;97894.56;1832696;77;21415;-74
2021/01/15 01:30:14;;;;;;;32.38;14.80;;;;;;;-2.52;81.74;97893.34;1832752;78;21169;-74
2021/01/15 01:32:41;;;;;;;31.17;15.78;;;;;;;-2.48;81.62;97903.84;1832933;76;21030;-75
2021/01/15 01:35:08;;;;;;;37.42;15.45;;;;;;;-2.50;80.54;97907.22;1832768;78;22095;-75
2021/01/15 01:37:34;;;;;;;35.10;17.17;;;;;;;-2.53;80.63;97903.65;1832612;76;21221;-74
2021/01/15 01:40:00;;;;;;;32.53;14.20;;;;;;;-2.50;80.42;97908.03;1832714;78;21526;-75
2021/01/15 01:42:27;;;;;;;32.25;15.28;;;;;;;-2.45;80.63;97905.61;1832687;77;21581;-75
2021/01/15 01:44:53;;;;;;;28.50;13.25;;;;;;;-2.49;80.01;97908.34;1832815;78;21176;-74
2021/01/15 01:47:19;;;;;;;27.67;13.25;;;;;;;-2.44;80.23;97911.73;1832659;76;21236;-75
2021/01/15 01:49:45;;;;;;;25.68;11.73;;;;;;;-2.45;79.44;97909.59;1832573;78;21113;-75
2021/01/15 01:52:11;;;;;;;27.07;14.05;;;;;;;-2.53;78.22;97911.61;1832627;77;21075;-74
2021/01/15 01:54:37;;;;;;;32.20;13.95;;;;;;;-2.56;77.95;97910.18;1832126;78;21121;-75
2021/01/15 01:57:04;;;;;;;31.50;13.43;;;;;;;-2.55;78.49;97915.79;1832699;78;21047;-74
2021/01/15 01:59:30;;;;;;;35.52;15.70;;;;;;;-2.53;79.04;97917.73;1832637;77;21180;-75
2021/01/15 02:01:57;;;;;;;28.60;13.13;;;;;;;-2.60;77.64;97912.39;1832618;78;21039;-75
2021/01/15 02:04:23;;;;;;;29.72;14.10;;;;;;;-2.58;78.04;97908.20;1832742;77;21037;-75
2021/01/15 02:06:49;;;;;;;25.77;14.25;;;;;;;-2.63;77.84;97908.82;1832665;78;21517;-75
2021/01/15 02:09:20;;;;;;;26.85;13.70;;;;;;;-2.72;77.29;97907.36;1832785;76;21046;-75
2021/01/15 02:12:04;;;;;;;26.68;11.78;;;;;;;-2.71;77.78;97910.83;1797891;78;21194;-74
2021/01/15 02:14:36;;;;;;;30.45;13.72;;;;;;;-2.71;77.60;97908.17;1826340;77;21114;-74
2021/01/15 02:17:02;;;;;;;30.25;13.40;;;;;;;-2.79;77.62;97899.88;1826231;78;21086;-75
2021/01/15 02:20:04;;;;;;;26.62;13.13;;;;;;;-2.82;78.31;97902.08;1826487;77;21153;-75
2021/01/15 02:23:06;;;;;;;30.65;14.68;;;;;;;-2.74;78.46;97904.06;1750772;81;21118;-74
2021/01/15 02:26:08;;;;;;;29.23;14.65;;;;;;;-2.76;78.67;97905.28;1847659;76;22650;-73
2021/01/15 02:28:59;;;;;;;28.07;13.78;;;;;;;-2.82;78.85;97902.08;1799694;78;21559;-74
2021/01/15 02:31:49;;;;;;;28.98;14.83;;;;;;;-2.75;79.16;97908.24;1785978;79;21189;-74
2021/01/15 02:34:38;;;;;;;30.75;13.70;;;;;;;-2.77;78.97;97911.09;1773590;79;21502;-75
2021/01/15 02:37:14;;;;;;;;;;;;;;;-2.82;79.10;97911.37;1788344;80;21506;-74
2021/01/15 02:40:30;;;;;;;30.10;13.28;;;;;;;-2.92;79.55;97911.22;1785696;80;20487;-74
2021/01/15 02:42:56;;;;;;;28.30;12.98;;;;;;;-2.95;79.26;97917.44;1785988;79;21083;-75
2021/01/15 02:45:22;;;;;;;24.00;12.13;;;;;;;-3.02;79.41;97926.67;1785846;80;21444;-74
2021/01/15 02:47:50;;;;;;;28.17;13.22;;;;;;;-2.99;78.93;97924.98;1785792;79;20904;-74
2021/01/15 02:50:19;;;;;;;28.90;14.07;;;;;;;-2.98;79.18;97926.61;1786183;80;20977;-74
2021/01/15 02:52:45;;;;;;;;;;;;;;;-2.91;79.27;97931.92;1788571;79;21102;-74
2021/01/15 02:55:12;;;;;;;27.60;12.23;;;;;;;-2.94;78.95;97942.42;1785958;80;20210;-74
2021/01/15 02:57:39;;;;;;;29.77;12.53;;;;;;;-2.91;79.16;97939.38;1785842;79;22010;-75
2021/01/15 03:00:07;;;;;;;34.58;13.95;;;;;;;-2.94;79.20;97942.94;1785753;80;21094;-74
2021/01/15 03:02:54;;;;;;;31.82;14.00;;;;;;;-2.91;79.21;97943.86;1786041;79;21638;-74
2021/01/15 03:05:36;;;;;;;30.92;13.03;;;;;;;-2.86;79.39;97946.25;1785902;80;21051;-74
2021/01/15 03:08:03;;;;;;;26.23;11.93;;;;;;;-2.73;79.63;97938.88;1785821;79;21023;-74
2021/01/15 03:10:30;;;;;;;22.93;12.33;;;;;;;-2.74;78.23;97939.05;1785860;80;22105;-74
2021/01/15 03:12:56;;;;;;;26.27;11.03;;;;;;;-2.82;77.92;97944.52;1785853;79;21094;-74
2021/01/15 03:15:22;;;;;;;24.37;11.63;;;;;;;-2.81;78.38;97942.20;1785807;80;20900;-74
2021/01/15 03:17:50;;;;;;;22.42;10.85;;;;;;;-2.81;78.83;97931.09;1785808;79;21019;-74
2021/01/15 03:20:16;;;;;;;20.23;11.50;;;;;;;-2.77;78.62;97929.66;1755418;80;20956;-74
2021/01/15 03:22:46;;;;;;;21.90;10.50;;;;;;;-2.78;77.70;97932.01;1755527;80;21131;-74
2021/01/15 03:25:14;;;;;;;25.95;13.08;;;;;;;-2.80;78.17;97938.53;1795621;79;21026;-74
2021/01/15 03:27:47;;;;;;;20.43;8.98;;;;;;;-2.81;77.75;97936.90;1800556;78;21431;-74
2021/01/15 03:30:20;;;;;;;23.90;10.38;;;;;;;-2.82;77.85;97944.52;1800366;79;21145;-74
2021/01/15 03:32:49;;;;;;;22.00;11.75;;;;;;;-2.80;78.40;97936.70;1800401;78;21105;-74
2021/01/15 03:35:24;;;;;;;22.15;11.18;;;;;;;-2.81;78.09;97942.20;1800323;79;21184;-74
2021/01/15 03:38:00;;;;;;;20.20;10.43;;;;;;;-2.81;78.32;97935.06;1799762;78;21030;-74
2021/01/15 03:40:29;;;;;;;21.65;11.00;;;;;;;-2.76;78.67;97932.62;1799768;79;21097;-74
2021/01/15 03:42:55;;;;;;;20.08;10.65;;;;;;;-2.72;78.32;97935.72;1799917;78;21121;-75
2021/01/15 03:45:22;;;;;;;23.98;12.23;;;;;;;-2.75;77.85;97930.79;1799778;79;21035;-74
2021/01/15 03:47:48;;;;;;;27.48;12.98;;;;;;;-2.77;77.18;97939.45;1799762;78;22084;-75
2021/01/15 03:50:14;;;;;;;24.47;9.78;;;;;;;-2.75;78.14;97934.25;1799797;79;21475;-75
2021/01/15 03:52:41;;;;;;;23.70;12.73;;;;;;;-2.81;77.42;97935.06;1799740;78;21086;-74
2021/01/15 03:55:08;;;;;;;24.10;11.63;;;;;;;-2.76;78.12;97933.95;1799766;79;21085;-75
2021/01/15 03:57:34;;;;;;;25.75;12.13;;;;;;;-2.78;77.75;97945.27;1799789;78;21173;-74
2021/01/15 04:00:03;;;;;;;28.90;12.13;;;;;;;-2.79;78.08;97940.98;1799745;79;21298;-74
2021/01/15 04:02:30;;;;;;;27.50;12.53;;;;;;;-2.76;78.29;97936.60;1799812;78;21090;-74
2021/01/15 04:04:56;;;;;;;28.05;12.73;;;;;;;-2.69;78.61;97934.80;1799718;79;21129;-75
2021/01/15 04:07:22;;;;;;;31.02;13.45;;;;;;;-2.61;78.58;97934.64;1799748;78;21145;-75
2021/01/15 04:09:48;;;;;;;26.40;12.30;;;;;;;-2.62;78.51;97938.31;1799754;79;21053;-74
2021/01/15 04:12:14;;;;;;;28.45;12.58;;;;;;;-2.61;78.67;97937.29;1799795;78;21195;-74
2021/01/15 04:14:41;;;;;;;27.80;13.95;;;;;;;-2.65;78.63;97936.06;1799694;79;21058;-75
2021/01/15 04:17:08;;;;;;;31.97;15.55;;;;;;;-2.64;78.81;97930.25;1799781;79;21128;-74
2021/01/15 04:19:34;;;;;;;29.12;13.70;;;;;;;-2.62;78.87;97934.33;1799676;78;21082;-74
2021/01/15 04:22:00;;;;;;;29.98;13.45;;;;;;;-2.60;78.81;97929.64;1799803;79;21534;-74
2021/01/15 04:24:26;;;;;;;28.80;14.35;;;;;;;-2.71;78.55;97931.54;1796074;78;21200;-75
2021/01/15 04:26:57;;;;;;;24.12;12.43;;;;;;;-2.72;78.75;97937.05;1785182;80;21095;-74
2021/01/15 04:29:24;;;;;;;28.77;11.70;;;;;;;-2.78;78.88;97934.66;1785202;79;21537;-74
2021/01/15 04:31:50;;;;;;;26.00;13.25;;;;;;;-2.95;79.25;97935.48;1785294;80;21090;-76
2021/01/15 04:34:16;;;;;;;23.18;12.70;;;;;;;-2.96;79.16;97933.04;1785207;79;21046;-75
2021/01/15 04:36:43;;;;;;;29.98;13.68;;;;;;;-2.97;79.36;97940.69;1785310;80;21165;-75
2021/01/15 04:39:09;;;;;;;29.05;12.98;;;;;;;-2.90;79.35;97936.24;1785116;79;21011;-73
2021/01/15 04:41:35;;;;;;;26.10;12.45;;;;;;;-2.90;79.55;97933.59;1785233;79;21031;-74
2021/01/15 04:44:02;;;;;;;24.15;12.80;;;;;;;-2.88;79.33;97939.52;1785167;79;21051;-74
2021/01/15 04:46:29;;;;;;;26.25;12.85;;;;;;;-2.82;79.44;97932.58;1785285;80;21095;-73
2021/01/15 04:48:56;;;;;;;27.10;13.45;;;;;;;-2.80;79.45;97926.59;1785189;79;21229;-73
2021/01/15 04:51:25;;;;;;;27.55;13.50;;;;;;;-2.79;79.36;97926.91;1785132;80;21091;-73
2021/01/15 04:54:06;;;;;;;27.00;12.90;;;;;;;-2.81;79.34;97931.09;1785327;79;21046;-73
2021/01/15 04:56:54;;;;;;;34.60;13.50;;;;;;;-2.87;79.09;97937.16;1785303;79;21083;-75
2021/01/15 04:59:19;;;;;;;28.75;13.03;;;;;;;-2.88;79.38;97930.23;1785201;79;21031;-74
2021/01/15 05:01:46;;;;;;;27.67;13.88;;;;;;;-2.83;79.46;97930.44;1785310;80;22109;-75
2021/01/15 05:04:16;;;;;;;26.20;13.00;;;;;;;-2.87;79.08;97935.33;1785134;79;21118;-74
2021/01/15 05:06:48;;;;;;;30.82;15.23;;;;;;;-3.02;79.26;97931.16;1785192;80;21086;-75
2021/01/15 05:09:21;;;;;;;27.82;13.22;;;;;;;-3.02;79.20;97926.67;1785141;79;20983;-74
2021/01/15 05:11:47;;;;;;;30.45;14.38;;;;;;;-3.00;79.43;97929.13;1785234;80;21102;-74
2021/01/15 05:14:16;;;;;;;26.52;13.05;;;;;;;-2.97;79.43;97928.25;1785243;79;21282;-75
2021/01/15 05:16:48;;;;;;;33.35;13.28;;;;;;;-3.02;79.36;97933.30;1785364;80;21082;-74
2021/01/15 05:19:15;;;;;;;37.45;14.87;;;;;;;-2.99;79.36;97928.11;1785239;79;21099;-74
2021/01/15 05:21:41;;;;;;;47.88;23.18;;;;;;;-2.94;79.45;97937.13;1785250;80;21150;-74
2021/01/15 05:24:09;;;;;;;53.38;23.22;;;;;;;-3.06;79.18;97937.88;1785163;79;21008;-74
2021/01/15 05:26:36;;;;;;;42.33;18.67;;;;;;;-3.08;79.41;97938.05;1796837;79;21191;-74
2021/01/15 05:29:04;;;;;;;50.03;25.90;;;;;;;-3.07;78.70;97942.37;1797192;78;21031;-75
2021/01/15 05:31:59;;;;;;;34.38;16.00;;;;;;;-3.08;79.03;97943.86;1797142;79;21423;-75
2021/01/15 05:34:28;;;;;;;36.17;17.90;;;;;;;-3.12;79.11;97932.84;1797226;78;20900;-75
2021/01/15 05:36:55;;;;;;;38.00;17.37;;;;;;;-3.06;79.28;97932.58;1796872;79;21098;-75
2021/01/15 05:39:23;;;;;;;32.58;15.23;;;;;;;-3.00;79.27;97936.57;1797138;78;21179;-75
2021/01/15 05:41:53;;;;;;;29.02;14.47;;;;;;;-2.98;78.99;97942.52;1797314;79;21078;-75
2021/01/15 05:44:33;;;;;;;29.75;14.58;;;;;;;-3.08;79.03;97930.09;1796342;78;21035;-75
2021/01/15 05:47:00;;;;;;;29.52;13.58;;;;;;;-2.97;79.18;97938.85;1797289;79;21492;-74
2021/01/15 05:49:28;;;;;;;31.48;14.30;;;;;;;-2.91;78.96;97934.58;1797159;78;21115;-74
2021/01/15 05:52:09;;;;;;;21.23;10.53;;;;;;;-2.93;78.62;97932.64;1796762;79;21131;-75
2021/01/15 05:54:35;;;;;;;27.95;13.80;;;;;;;-2.93;78.58;97941.41;1770952;79;21109;-74
2021/01/15 05:57:03;;;;;;;26.17;14.07;;;;;;;-2.95;78.46;97947.42;1797149;79;21155;-74
2021/01/15 05:59:32;;;;;;;26.55;12.80;;;;;;;-2.95;78.57;97946.09;1797218;78;21058;-74
2021/01/15 06:02:01;;;;;;;30.48;15.38;;;;;;;-3.04;78.07;97947.78;1745634;79;21062;-74
2021/01/15 06:04:38;;;;;;;28.83;12.55;;;;;;;-3.15;78.37;97948.64;1794017;78;21198;-74
2021/01/15 06:07:16;;;;;;;32.65;15.45;;;;;;;-3.14;78.37;97950.78;1797398;79;21463;-74
2021/01/15 06:09:46;;;;;;;29.60;13.88;;;;;;;-3.06;78.57;97949.81;1797158;79;21051;-73
2021/01/15 06:12:17;;;;;;;36.17;17.03;;;;;;;-3.05;78.57;97952.77;1797375;78;21078;-73
2021/01/15 06:14:50;;;;;;;57.13;24.85;;;;;;;-2.99;78.73;97949.31;1797158;79;21747;-74
2021/01/15 06:17:18;;;;;;;49.27;21.42;;;;;;;-2.95;78.83;97954.05;1797147;78;21195;-75
2021/01/15 06:19:58;;;;;;;34.90;15.55;;;;;;;-2.89;78.68;97955.94;1797162;79;20947;-74
2021/01/15 06:22:46;;;;;;;27.37;13.05;;;;;;;-2.88;78.27;97963.38;1797098;78;21105;-75
2021/01/15 06:25:32;;;;;;;34.15;14.85;;;;;;;-2.95;78.06;97956.70;1793642;79;21122;-74
2021/01/15 06:28:03;;;;;;;35.03;15.72;;;;;;;-2.90;78.09;97952.16;1785185;79;21019;-75
2021/01/15 06:30:31;;;;;;;37.95;17.48;;;;;;;-2.94;78.11;97958.34;1785351;80;21358;-74
2021/01/15 06:33:11;;;;;;;31.65;15.95;;;;;;;-2.93;78.21;97959.97;1785071;79;21095;-74
2021/01/15 06:35:42;;;;;;;65.57;24.75;;;;;;;-2.91;78.23;97963.23;1785186;80;21031;-75
2021/01/15 06:38:13;;;;;;;101.20;53.68;;;;;;;-2.90;78.29;97961.44;1784939;79;21092;-74
2021/01/15 06:40:42;;;;;;;32.95;14.93;;;;;;;-2.91;78.17;97965.89;1785139;80;21044;-74
2021/01/15 06:43:21;;;;;;;;;;;;;;;-2.96;77.67;97966.19;1787144;79;21200;-74
2021/01/15 06:45:49;;;;;;;;;;;;;;;-2.96;77.89;97969.66;1787720;80;20211;-74
2021/01/15 06:48:18;;;;;;;35.88;18.07;;;;;;;-2.96;77.86;97972.81;1785131;79;20210;-75
2021/01/15 06:50:46;;;;;;;26.57;13.48;;;;;;;-3.08;77.18;97977.81;1785114;79;21074;-74
2021/01/15 06:53:24;;;;;;;27.50;11.43;;;;;;;-3.00;77.84;97986.13;1785200;79;21106;-74
2021/01/15 06:56:02;;;;;;;31.37;16.85;;;;;;;-2.98;77.78;97982.80;1785111;80;21051;-74
2021/01/15 06:58:42;;;;;;;45.75;23.32;;;;;;;-2.93;77.98;97989.14;1785263;79;21047;-74
2021/01/15 07:01:47;;;;;;;38.60;17.45;;;;;;;-2.90;77.90;97983.98;1785125;80;21039;-75
2021/01/15 07:04:27;;;;;;;28.50;14.98;;;;;;;-2.91;77.71;97995.57;1784505;79;21134;-74
2021/01/15 07:07:11;;;;;;;32.38;13.95;;;;;;;-2.91;77.76;97991.59;1785164;80;21106;-74
2021/01/15 07:09:43;;;;;;;35.03;17.32;;;;;;;-2.88;77.73;98003.97;1785252;79;21194;-74
2021/01/15 07:12:13;;;;;;;33.75;19.00;;;;;;;-2.98;77.62;98004.83;1785210;80;21484;-74
2021/01/15 07:14:54;;;;;;;128.50;23.83;;;;;;;-2.93;77.83;97999.75;1785277;80;21114;-74
2021/01/15 07:17:37;;;;;;;34.55;14.65;;;;;;;-2.95;77.78;98008.92;1785297;79;21487;-74
2021/01/15 07:20:07;;;;;;;31.10;16.02;;;;;;;-2.88;77.86;98007.13;1785357;80;21067;-74
2021/01/15 07:25:21;;;;;;;26.40;13.03;;;;;;;-2.77;77.38;98014.54;1890204;76;22551;-75
2021/01/15 07:27:48;;;;;;;30.32;15.35;;;;;;;-2.82;77.23;98022.25;1852689;77;21023;-75
2021/01/15 07:30:20;;;;;;;30.92;18.07;;;;;;;-2.79;77.21;98017.09;1827350;78;21251;-74
2021/01/15 07:32:49;;;;;;;31.33;14.23;;;;;;;-2.81;77.11;98023.09;1827286;77;21411;-74
2021/01/15 07:35:17;;;;;;;55.35;22.15;;;;;;;-2.79;77.21;98017.91;1827411;78;21083;-75
2021/01/15 07:37:44;;;;;;;35.60;19.60;;;;;;;-2.97;76.36;98025.53;1827639;77;21039;-75
2021/01/15 07:40:20;;;;;;;26.15;13.72;;;;;;;-3.38;80.32;98055.38;1827341;78;21106;-74
2021/01/15 07:42:57;;;;;;;30.17;13.25;;;;;;;-3.73;84.51;98063.70;1827397;77;21185;-75
2021/01/15 07:45:32;;;;;;;26.33;10.98;;;;;;;-4.07;83.97;98077.56;1827360;78;21487;-74
2021/01/15 07:48:05;;;;;;;21.07;11.25;;;;;;;-4.23;83.88;98083.88;1827318;77;21522;-75
2021/01/15 07:50:36;;;;;;;21.70;10.55;;;;;;;-4.55;82.76;98092.49;1827327;78;21098;-75
2021/01/15 07:53:40;;;;;;;29.25;10.53;;;;;;;-4.56;83.00;98091.36;1826904;77;21464;-75
2021/01/15 07:56:06;;;;;;;20.12;10.58;;;;;;;-4.65;82.41;98097.23;1827452;78;22051;-75
2021/01/15 07:58:38;;;;;;;24.23;10.63;;;;;;;-4.64;82.29;98100.20;1827178;77;20987;-74
2021/01/15 08:01:09;;;;;;;20.88;10.40;;;;;;;-4.51;83.26;98103.55;1827330;78;21062;-75
2021/01/15 08:03:49;;;;;;;22.25;11.28;;;;;;;-4.54;81.63;98106.03;1827223;77;21411;-74
2021/01/15 08:06:16;;;;;;;23.40;11.12;;;;;;;-4.56;81.22;98108.05;1827348;78;21066;-75
2021/01/15 08:09:06;;;;;;;21.80;11.10;;;;;;;-4.38;82.41;98113.48;1827258;77;21194;-75
2021/01/15 08:11:35;;;;;;;23.95;12.43;;;;;;;-4.45;80.58;98119.17;1827231;78;21113;-76
2021/01/15 08:14:16;;;;;;;32.38;13.45;;;;;;;-4.34;81.79;98123.53;1827225;77;21483;-75
2021/01/15 08:16:43;;;;;;;27.58;14.28;;;;;;;-4.35;80.50;98126.37;1827448;78;21498;-75
2021/01/15 08:19:11;;;;;;;22.70;12.40;;;;;;;-4.31;80.45;98131.59;1827234;77;21075;-74
2021/01/15 08:21:37;;;;;;;31.93;14.43;;;;;;;-4.24;80.20;98130.38;1827258;78;21196;-74
2021/01/15 08:24:05;;;;;;;30.12;13.93;;;;;;;-4.30;79.26;98135.38;1827129;77;21039;-74
2021/01/15 08:26:51;;;;;;;28.67;13.18;;;;;;;-4.33;79.34;98136.25;1827357;78;20960;-74
2021/01/15 08:29:21;;;;;;;27.07;13.98;;;;;;;-4.38;78.05;98143.41;1827310;77;21145;-74
2021/01/15 08:31:48;;;;;;;19.40;10.85;;;;;;;-4.50;78.30;98147.52;1827304;78;21078;-75
2021/01/15 08:34:22;;;;;;;28.47;15.40;;;;;;;-4.41;78.17;98148.25;1827220;77;21252;-74
2021/01/15 08:36:57;;;;;;;30.37;13.55;;;;;;;-4.31;78.54;98145.64;1826753;78;21133;-75
2021/01/15 08:39:23;;;;;;;23.30;11.70;;;;;;;-4.30;77.87;98144.64;1796000;78;21039;-74
2021/01/15 08:41:58;;;;;;;22.82;12.65;;;;;;;-4.17;78.08;98144.52;1826685;78;21109;-73
2021/01/15 08:44:25;;;;;;;29.72;13.68;;;;;;;-4.27;77.41;98148.27;1826715;77;21023;-74
2021/01/15 08:46:51;;;;;;;24.85;12.23;;;;;;;-4.24;77.71;98155.01;1826688;78;21988;-74
2021/01/15 08:49:17;;;;;;;23.92;13.22;;;;;;;-4.20;78.06;98156.27;1826560;77;21054;-75
2021/01/15 08:51:47;;;;;;;25.08;12.18;;;;;;;-4.01;78.59;98157.57;1826662;78;21121;-74
2021/01/15 08:54:14;;;;;;;45.85;21.02;;;;;;;-3.82;77.97;98159.64;1826622;77;21502;-75
2021/01/15 08:56:49;;;;;;;25.17;13.55;;;;;;;-3.67;77.98;98165.40;1826693;78;21109;-74
2021/01/15 08:59:31;;;;;;;24.75;13.45;;;;;;;-3.90;76.50;98165.54;1826714;77;22186;-75
2021/01/15 09:02:03;;;;;;;28.87;13.58;;;;;;;-3.99;76.70;98176.23;1826653;78;21074;-74
2021/01/15 09:04:32;;;;;;;29.52;14.45;;;;;;;-4.09;76.32;98179.66;1826542;77;21082;-74
2021/01/15 09:07:04;;;;;;;24.18;12.45;;;;;;;-4.21;75.97;98188.22;1826824;78;21106;-75
2021/01/15 09:09:33;;;;;;;27.40;12.37;;;;;;;-4.24;75.97;98192.56;1826629;77;21078;-74
2021/01/15 09:12:05;;;;;;;28.32;13.62;;;;;;;-4.24;75.84;98199.17;1826770;78;21096;-74
2021/01/15 09:14:38;;;;;;;42.55;20.45;;;;;;;-4.14;76.16;98193.11;1826544;77;21466;-74
2021/01/15 09:17:06;;;;;;;39.58;19.98;;;;;;;-4.33;76.01;98199.76;1826754;78;21075;-74
2021/01/15 09:19:33;;;;;;;32.63;16.30;;;;;;;-4.19;75.82;98204.73;1826662;77;21090;-73
2021/01/15 09:22:09;;;;;;;31.10;14.20;;;;;;;-4.37;74.84;98205.89;1826786;78;21490;-75
2021/01/15 09:24:36;;;;;;;25.77;13.85;;;;;;;-4.45;75.15;98206.47;1825601;77;21240;-74
2021/01/15 09:27:07;;;;;;;28.95;15.95;;;;;;;-4.38;75.24;98217.48;1824595;78;21523;-73
2021/01/15 09:29:36;;;;;;;45.03;18.50;;;;;;;-4.26;75.47;98215.23;1824550;77;21039;-74
2021/01/15 09:32:03;;;;;;;40.10;17.45;;;;;;;-4.32;74.67;98220.73;1824705;78;21103;-74
2021/01/15 09:34:29;;;;;;;24.98;10.93;;;;;;;-4.38;74.45;98218.80;1824561;77;21483;-74
2021/01/15 09:36:55;;;;;;;20.92;10.38;;;;;;;-4.41;73.33;98224.97;1824596;78;21156;-74
2021/01/15 09:39:23;;;;;;;21.57;9.43;;;;;;;-4.21;71.99;98216.83;1824568;77;21083;-74
2021/01/15 09:41:57;;;;;;;16.62;9.18;;;;;;;-4.16;70.90;98225.56;1824594;78;21098;-74
2021/01/15 09:44:26;;;;;;;18.67;10.05;;;;;;;-4.09;70.33;98226.48;1824505;77;21058;-74
2021/01/15 09:47:00;;;;;;;17.82;9.18;;;;;;;-3.87;70.24;98229.53;1824826;78;21098;-73
2021/01/15 09:49:27;;;;;;;21.77;10.30;;;;;;;-3.73;69.39;98226.06;1824550;77;21197;-75
2021/01/15 09:51:53;;;;;;;16.35;8.98;;;;;;;-3.49;68.69;98226.78;1824516;78;21074;-74
2021/01/15 09:54:19;;;;;;;19.17;10.55;;;;;;;-3.21;68.04;98226.39;1824517;77;21075;-75
2021/01/15 09:56:47;;;;;;;18.40;11.18;;;;;;;-3.23;68.17;98227.09;1824587;78;21129;-75
2021/01/15 09:59:16;;;;;;;14.80;8.43;;;;;;;-3.11;67.73;98224.77;1824804;77;21384;-74
2021/01/15 10:01:43;;;;;;;;;;;;;;;-3.30;66.22;98230.16;1827293;78;22053;-75
2021/01/15 10:04:09;;;;;;;15.68;9.00;;;;;;;-3.48;66.15;98232.39;1824439;77;20208;-74
2021/01/15 10:06:40;;;;;;;18.37;9.93;;;;;;;-3.37;67.35;98232.41;1824557;78;21137;-74
2021/01/15 10:09:09;;;;;;;22.82;10.65;;;;;;;-3.41;67.68;98239.42;1824630;77;21014;-74
2021/01/15 10:11:37;;;;;;;22.25;8.50;;;;;;;-3.44;67.66;98250.88;1824235;77;21490;-74
2021/01/15 10:14:05;;;;;;;24.07;11.07;;;;;;;-3.47;67.64;98247.28;1824772;77;21269;-74
2021/01/15 10:16:31;;;;;;;21.30;10.18;;;;;;;-3.39;66.83;98242.39;1824655;78;21106;-74
2021/01/15 10:18:58;;;;;;;19.77;8.95;;;;;;;-3.56;67.07;98244.41;1824516;77;21137;-74
2021/01/15 10:21:28;;;;;;;18.25;8.85;;;;;;;-3.57;66.94;98243.59;1824551;78;21165;-74
2021/01/15 10:23:55;;;;;;;19.90;8.25;;;;;;;-3.50;66.85;98245.02;1824481;77;21062;-74
2021/01/15 10:26:30;;;;;;;16.45;8.43;;;;;;;-3.47;66.94;98237.50;1826701;78;21505;-73
2021/01/15 10:28:58;;;;;;;15.10;7.87;;;;;;;-3.36;66.57;98242.00;1826596;77;21102;-74
2021/01/15 10:31:27;;;;;;;14.68;7.35;;;;;;;-3.70;64.73;98243.41;1795355;78;21082;-74
2021/01/15 10:33:58;;;;;;;18.15;10.40;;;;;;;-3.78;66.44;98225.78;1826162;77;21098;-74
2021/01/15 10:36:24;;;;;;;19.35;8.70;;;;;;;-3.78;66.44;98225.78;1826556;78;21063;-74
2021/01/15 10:38:51;;;;;;;20.15;10.48;;;;;;;-3.90;66.12;98228.58;1826527;77;21194;-74
2021/01/15 10:41:32;;;;;;;19.75;9.55;;;;;;;-3.75;67.58;98221.47;1826516;78;21101;-74
2021/01/15 10:43:59;;;;;;;39.18;16.73;;;;;;;-3.81;66.20;98216.89;1825426;77;21018;-74
2021/01/15 10:46:37;;;;;;;66.65;28.05;;;;;;;-3.73;67.85;98207.53;1826635;78;21078;-73
2021/01/15 10:49:05;;;;;;;49.00;21.55;;;;;;;-3.80;67.70;98203.97;1825600;77;21031;-73
2021/01/15 10:51:31;;;;;;;29.48;14.15;;;;;;;-3.71;68.72;98196.23;1826589;78;21192;-73
2021/01/15 10:53:58;;;;;;;16.05;9.58;;;;;;;-3.62;68.73;98196.14;1826547;77;21098;-73
2021/01/15 10:56:24;;;;;;;30.52;14.63;;;;;;;-3.69;64.40;98206.64;1826641;78;21541;-73
2021/01/15 10:58:52;;;;;;;30.75;17.42;;;;;;;-3.61;66.57;98204.40;1826643;77;21086;-73
2021/01/15 11:01:18;;;;;;;42.75;21.87;;;;;;;-3.60;66.56;98199.41;1825641;78;21129;-74
2021/01/15 11:03:45;;;;;;;32.75;15.20;;;;;;;-3.46;67.77;98206.53;1826622;77;22036;-74
2021/01/15 11:06:19;;;;;;;61.77;20.37;;;;;;;-3.38;67.16;98197.66;1826472;78;20987;-74
2021/01/15 11:08:45;;;;;;;80.90;26.80;;;;;;;-3.27;67.85;98186.55;1826534;77;21043;-74
2021/01/15 11:11:11;;;;;;;38.00;17.25;;;;;;;-3.29;68.07;98177.98;1826553;78;21087;-74
2021/01/15 11:13:38;;;;;;;149.05;63.42;;;;;;;-3.19;67.51;98175.33;1826536;77;21130;-74
2021/01/15 11:16:15;;;;;;;108.12;36.60;;;;;;;-3.24;67.29;98175.59;1826624;78;21198;-74
2021/01/15 11:18:42;;;;;;;84.47;29.42;;;;;;;-3.15;67.33;98169.98;1826493;77;20999;-74
2021/01/15 11:21:09;;;;;;;47.08;20.80;;;;;;;-3.09;67.71;98168.39;1826523;78;21145;-73
2021/01/15 11:23:36;;;;;;;373.87;154.45;;;;;;;-2.97;67.50;98163.42;1826483;77;21098;-73
2021/01/15 11:26:03;;;;;;;36.90;16.20;;;;;;;-2.89;66.13;98157.48;1826590;78;21042;-73
2021/01/15 11:28:29;;;;;;;21.87;13.20;;;;;;;-2.85;65.11;98161.88;1826547;77;21193;-73
2021/01/15 11:30:55;;;;;;;23.07;12.90;;;;;;;-2.83;66.12;98161.19;1826575;78;21047;-73
2021/01/15 11:33:21;;;;;;;23.62;10.90;;;;;;;-2.88;63.52;98155.14;1826528;77;21085;-75
2021/01/15 11:35:50;;;;;;;15.25;6.58;;;;;;;-2.79;63.11;98155.83;1826504;78;21070;-74
2021/01/15 11:38:18;;;;;;;17.23;8.15;;;;;;;-2.64;65.12;98155.24;1826763;77;21463;-75